sensor_id;sensor_type;location;lat;lon;timestamp;temperature;humidity
73643;DHT22;61938;48.652;9.292;2023-02-15T00:01:54;-0.80;99.90
73643;DHT22;61938;48.652;9.292;2023-02-15T00:04:22;-0.90;99.90
73643;DHT22;61938;48.652;9.292;2023-02-15T00:06:48;-1.00;99.90
73643;DHT22;61938;48.652;9.292;2023-02-15T00:09:14;-1.00;99.90
73643;DHT22;61938;48.652;9.292;2023-02-15T00:11:39;-1.10;99.90
73643;DHT22;61938;48.652;9.292;2023-02-15T00:14:23;-1.10;99.90
73643;DHT22;61938;48.652;9.292;2023-02-15T00:16:51;-1.10;99.90
73643;DHT22;61938;48.652;9.292;2023-02-15T00:19:19;-1.10;99.90
73643;DHT22;61938;48.652;9.292;2023-02-15T00:21:45;-1.10;99.90
73643;DHT22;61938;48.652;9.292;2023-02-15T00:24:12;-1.10;99.90
73643;DHT22;61938;48.652;9.292;2023-02-15T00:26:39;-1.20;99.90
73643;DHT22;61938;48.652;9.292;2023-02-15T00:29:05;-1.20;99.90
73643;DHT22;61938;48.652;9.292;2023-02-15T00:31:32;-1.30;99.90
73643;DHT22;61938;48.652;9.292;2023-02-15T00:36:28;-1.30;99.90
73643;DHT22;61938;48.652;9.292;2023-02-15T00:38:53;-1.30;99.90
73643;DHT22;61938;48.652;9.292;2023-02-15T00:41:19;-1.30;99.90
73643;DHT22;61938;48.652;9.292;2023-02-15T00:43:44;-1.30;99.90
73643;DHT22;61938;48.652;9.292;2023-02-15T00:46:10;-1.40;99.90
73643;DHT22;61938;48.652;9.292;2023-02-15T00:48:35;-1.40;99.90
73643;DHT22;61938;48.652;9.292;2023-02-15T00:51:01;-1.50;99.90
73643;DHT22;61938;48.652;9.292;2023-02-15T00:53:27;-1.50;99.90
73643;DHT22;61938;48.652;9.292;2023-02-15T00:55:53;-1.40;99.90
73643;DHT22;61938;48.652;9.292;2023-02-15T00:58:19;-1.40;99.90
73643;DHT22;61938;48.652;9.292;2023-02-15T01:00:45;-1.30;99.90
73643;DHT22;61938;48.652;9.292;2023-02-15T01:03:13;-1.30;99.90
73643;DHT22;61938;48.652;9.292;2023-02-15T01:05:38;-1.20;99.90
73643;DHT22;61938;48.652;9.292;2023-02-15T01:08:04;-1.20;99.90
73643;DHT22;61938;48.652;9.292;2023-02-15T01:10:30;-1.30;99.90
73643;DHT22;61938;48.652;9.292;2023-02-15T01:12:56;-1.40;99.90
73643;DHT22;61938;48.652;9.292;2023-02-15T01:15:22;-1.40;99.90
73643;DHT22;61938;48.652;9.292;2023-02-15T01:17:48;-1.50;99.90
73643;DHT22;61938;48.652;9.292;2023-02-15T01:20:23;-1.50;99.90
73643;DHT22;61938;48.652;9.292;2023-02-15T01:22:48;-1.50;99.90
73643;DHT22;61938;48.652;9.292;2023-02-15T01:25:16;-1.50;99.90
73643;DHT22;61938;48.652;9.292;2023-02-15T01:27:42;-1.50;99.90
73643;DHT22;61938;48.652;9.292;2023-02-15T01:30:08;-1.40;99.90
73643;DHT22;61938;48.652;9.292;2023-02-15T01:32:34;-1.40;99.90
73643;DHT22;61938;48.652;9.292;2023-02-15T01:34:59;-1.40;99.90
73643;DHT22;61938;48.652;9.292;2023-02-15T01:37:25;-1.40;99.90
73643;DHT22;61938;48.652;9.292;2023-02-15T01:39:50;-1.50;99.90
73643;DHT22;61938;48.652;9.292;2023-02-15T01:42:22;-1.50;99.90
73643;DHT22;61938;48.652;9.292;2023-02-15T01:45:03;-1.50;99.90
73643;DHT22;61938;48.652;9.292;2023-02-15T01:47:54;-1.50;99.90
73643;DHT22;61938;48.652;9.292;2023-02-15T01:50:34;-1.50;99.90
73643;DHT22;61938;48.652;9.292;2023-02-15T01:53:09;-1.60;99.90
73643;DHT22;61938;48.652;9.292;2023-02-15T01:56:01;-1.60;99.90
73643;DHT22;61938;48.652;9.292;2023-02-15T01:58:29;-1.60;99.90
73643;DHT22;61938;48.652;9.292;2023-02-15T02:00:56;-1.60;99.90
73643;DHT22;61938;48.652;9.292;2023-02-15T02:03:30;-1.70;99.90
73643;DHT22;61938;48.652;9.292;2023-02-15T02:06:02;-1.60;99.90
73643;DHT22;61938;48.652;9.292;2023-02-15T02:08:28;-1.60;99.90
73643;DHT22;61938;48.652;9.292;2023-02-15T02:10:53;-1.70;99.90
73643;DHT22;61938;48.652;9.292;2023-02-15T02:13:19;-1.70;99.90
73643;DHT22;61938;48.652;9.292;2023-02-15T02:15:48;-1.70;99.90
73643;DHT22;61938;48.652;9.292;2023-02-15T02:18:45;-1.80;99.90
73643;DHT22;61938;48.652;9.292;2023-02-15T02:21:44;-1.80;99.90
73643;DHT22;61938;48.652;9.292;2023-02-15T02:24:37;-1.80;99.90
73643;DHT22;61938;48.652;9.292;2023-02-15T02:27:26;-1.80;99.90
73643;DHT22;61938;48.652;9.292;2023-02-15T02:36:08;-1.90;99.90
73643;DHT22;61938;48.652;9.292;2023-02-15T02:41:55;-1.90;99.90
73643;DHT22;61938;48.652;9.292;2023-02-15T02:47:02;-1.90;99.90
73643;DHT22;61938;48.652;9.292;2023-02-15T02:49:33;-2.00;99.90
73643;DHT22;61938;48.652;9.292;2023-02-15T02:54:47;-2.10;99.90
73643;DHT22;61938;48.652;9.292;2023-02-15T02:57:13;-2.10;99.90
73643;DHT22;61938;48.652;9.292;2023-02-15T02:59:41;-2.10;99.90
73643;DHT22;61938;48.652;9.292;2023-02-15T03:02:13;-2.10;99.90
73643;DHT22;61938;48.652;9.292;2023-02-15T03:04:45;-2.00;99.90
73643;DHT22;61938;48.652;9.292;2023-02-15T03:07:15;-2.00;99.90
73643;DHT22;61938;48.652;9.292;2023-02-15T03:09:50;-2.10;99.90
73643;DHT22;61938;48.652;9.292;2023-02-15T03:12:20;-2.10;99.90
73643;DHT22;61938;48.652;9.292;2023-02-15T03:14:57;-2.20;99.90
73643;DHT22;61938;48.652;9.292;2023-02-15T03:17:26;-2.20;99.90
73643;DHT22;61938;48.652;9.292;2023-02-15T03:19:53;-2.20;99.90
73643;DHT22;61938;48.652;9.292;2023-02-15T03:22:28;-2.30;99.90
73643;DHT22;61938;48.652;9.292;2023-02-15T03:25:02;-2.20;99.90
73643;DHT22;61938;48.652;9.292;2023-02-15T03:27:42;-2.30;99.90
73643;DHT22;61938;48.652;9.292;2023-02-15T03:30:10;-2.30;99.90
73643;DHT22;61938;48.652;9.292;2023-02-15T03:32:37;-2.20;99.90
73643;DHT22;61938;48.652;9.292;2023-02-15T03:35:04;-2.30;99.90
73643;DHT22;61938;48.652;9.292;2023-02-15T03:37:37;-2.30;99.90
73643;DHT22;61938;48.652;9.292;2023-02-15T03:40:23;-2.20;99.90
73643;DHT22;61938;48.652;9.292;2023-02-15T03:46:08;-2.30;99.90
73643;DHT22;61938;48.652;9.292;2023-02-15T03:48:43;-2.30;99.90
73643;DHT22;61938;48.652;9.292;2023-02-15T03:51:15;-2.20;99.90
73643;DHT22;61938;48.652;9.292;2023-02-15T03:54:06;-2.20;99.90
73643;DHT22;61938;48.652;9.292;2023-02-15T03:56:34;-2.20;99.90
73643;DHT22;61938;48.652;9.292;2023-02-15T03:59:00;-2.20;99.90
73643;DHT22;61938;48.652;9.292;2023-02-15T04:02:10;-2.20;99.90
73643;DHT22;61938;48.652;9.292;2023-02-15T04:04:45;-2.20;99.90
73643;DHT22;61938;48.652;9.292;2023-02-15T04:07:11;-2.20;99.90
73643;DHT22;61938;48.652;9.292;2023-02-15T04:09:37;-2.20;99.90
73643;DHT22;61938;48.652;9.292;2023-02-15T04:12:21;-2.20;99.90
73643;DHT22;61938;48.652;9.292;2023-02-15T04:14:47;-2.20;99.90
73643;DHT22;61938;48.652;9.292;2023-02-15T04:17:31;-2.20;99.90
73643;DHT22;61938;48.652;9.292;2023-02-15T04:19:57;-2.20;99.90
73643;DHT22;61938;48.652;9.292;2023-02-15T04:22:41;-2.10;99.90
73643;DHT22;61938;48.652;9.292;2023-02-15T04:25:25;-2.10;99.90
73643;DHT22;61938;48.652;9.292;2023-02-15T04:27:53;-2.20;99.90
73643;DHT22;61938;48.652;9.292;2023-02-15T04:30:22;-2.20;99.90
73643;DHT22;61938;48.652;9.292;2023-02-15T04:32:48;-2.20;99.90
73643;DHT22;61938;48.652;9.292;2023-02-15T04:35:13;-2.20;99.90
73643;DHT22;61938;48.652;9.292;2023-02-15T04:37:40;-2.30;99.90
73643;DHT22;61938;48.652;9.292;2023-02-15T04:40:07;-2.30;99.90
73643;DHT22;61938;48.652;9.292;2023-02-15T04:42:33;-2.30;99.90
73643;DHT22;61938;48.652;9.292;2023-02-15T04:44:59;-2.30;99.90
73643;DHT22;61938;48.652;9.292;2023-02-15T04:47:24;-2.40;99.90
73643;DHT22;61938;48.652;9.292;2023-02-15T04:49:50;-2.40;99.90
73643;DHT22;61938;48.652;9.292;2023-02-15T04:52:16;-2.50;99.90
73643;DHT22;61938;48.652;9.292;2023-02-15T04:54:43;-2.50;99.90
73643;DHT22;61938;48.652;9.292;2023-02-15T04:57:09;-2.60;99.90
73643;DHT22;61938;48.652;9.292;2023-02-15T04:59:35;-2.60;99.90
73643;DHT22;61938;48.652;9.292;2023-02-15T05:02:00;-2.70;99.90
73643;DHT22;61938;48.652;9.292;2023-02-15T05:04:26;-2.70;99.90
73643;DHT22;61938;48.652;9.292;2023-02-15T05:06:52;-2.60;99.90
73643;DHT22;61938;48.652;9.292;2023-02-15T05:09:17;-2.60;99.90
73643;DHT22;61938;48.652;9.292;2023-02-15T05:11:43;-2.60;99.90
73643;DHT22;61938;48.652;9.292;2023-02-15T05:14:08;-2.70;99.90
73643;DHT22;61938;48.652;9.292;2023-02-15T05:16:34;-2.60;99.90
73643;DHT22;61938;48.652;9.292;2023-02-15T05:18:59;-2.60;99.90
73643;DHT22;61938;48.652;9.292;2023-02-15T05:21:25;-2.50;99.90
73643;DHT22;61938;48.652;9.292;2023-02-15T05:23:51;-2.50;99.90
73643;DHT22;61938;48.652;9.292;2023-02-15T05:26:19;-2.50;99.90
73643;DHT22;61938;48.652;9.292;2023-02-15T05:29:04;-2.50;99.90
73643;DHT22;61938;48.652;9.292;2023-02-15T05:31:30;-2.50;99.90
73643;DHT22;61938;48.652;9.292;2023-02-15T05:33:56;-2.50;99.90
73643;DHT22;61938;48.652;9.292;2023-02-15T05:36:21;-2.50;99.90
73643;DHT22;61938;48.652;9.292;2023-02-15T05:38:47;-2.60;99.90
73643;DHT22;61938;48.652;9.292;2023-02-15T05:41:12;-2.60;99.90
73643;DHT22;61938;48.652;9.292;2023-02-15T05:43:38;-2.60;99.90
73643;DHT22;61938;48.652;9.292;2023-02-15T05:46:05;-2.60;99.90
73643;DHT22;61938;48.652;9.292;2023-02-15T05:48:31;-2.60;99.90
73643;DHT22;61938;48.652;9.292;2023-02-15T05:53:28;-2.70;99.90
73643;DHT22;61938;48.652;9.292;2023-02-15T05:55:54;-2.70;99.90
73643;DHT22;61938;48.652;9.292;2023-02-15T05:58:24;-2.70;99.90
73643;DHT22;61938;48.652;9.292;2023-02-15T06:00:50;-2.80;99.90
73643;DHT22;61938;48.652;9.292;2023-02-15T06:03:15;-2.90;99.90
73643;DHT22;61938;48.652;9.292;2023-02-15T06:05:41;-2.90;99.90
73643;DHT22;61938;48.652;9.292;2023-02-15T06:08:06;-2.90;99.90
73643;DHT22;61938;48.652;9.292;2023-02-15T06:10:32;-2.90;99.90
73643;DHT22;61938;48.652;9.292;2023-02-15T06:12:57;-2.90;99.90
73643;DHT22;61938;48.652;9.292;2023-02-15T06:15:23;-2.80;99.90
73643;DHT22;61938;48.652;9.292;2023-02-15T06:17:48;-2.90;99.90
73643;DHT22;61938;48.652;9.292;2023-02-15T06:20:14;-2.80;99.90
73643;DHT22;61938;48.652;9.292;2023-02-15T06:22:39;-2.80;99.90
73643;DHT22;61938;48.652;9.292;2023-02-15T06:25:05;-2.80;99.90
73643;DHT22;61938;48.652;9.292;2023-02-15T06:27:31;-2.80;99.90
73643;DHT22;61938;48.652;9.292;2023-02-15T06:29:56;-2.80;99.90
73643;DHT22;61938;48.652;9.292;2023-02-15T06:32:22;-2.80;99.90
73643;DHT22;61938;48.652;9.292;2023-02-15T06:34:47;-2.70;99.90
73643;DHT22;61938;48.652;9.292;2023-02-15T06:37:12;-2.70;99.90
73643;DHT22;61938;48.652;9.292;2023-02-15T06:39:38;-2.70;99.90
73643;DHT22;61938;48.652;9.292;2023-02-15T06:42:03;-2.70;99.90
73643;DHT22;61938;48.652;9.292;2023-02-15T06:44:29;-2.80;99.90
73643;DHT22;61938;48.652;9.292;2023-02-15T06:46:54;-2.80;99.90
73643;DHT22;61938;48.652;9.292;2023-02-15T06:49:20;-2.80;99.90
73643;DHT22;61938;48.652;9.292;2023-02-15T06:51:45;-2.80;99.90
73643;DHT22;61938;48.652;9.292;2023-02-15T06:54:11;-2.80;99.90
73643;DHT22;61938;48.652;9.292;2023-02-15T06:56:36;-2.80;99.90
73643;DHT22;61938;48.652;9.292;2023-02-15T06:59:02;-2.70;99.90
73643;DHT22;61938;48.652;9.292;2023-02-15T07:01:27;-2.50;99.90
73643;DHT22;61938;48.652;9.292;2023-02-15T07:03:53;-2.00;99.90
73643;DHT22;61938;48.652;9.292;2023-02-15T07:06:18;-1.60;99.90
73643;DHT22;61938;48.652;9.292;2023-02-15T07:08:44;-1.20;99.90
73643;DHT22;61938;48.652;9.292;2023-02-15T07:11:09;-1.00;99.90
73643;DHT22;61938;48.652;9.292;2023-02-15T07:13:53;-0.70;99.90
73643;DHT22;61938;48.652;9.292;2023-02-15T07:16:19;-0.60;99.90
73643;DHT22;61938;48.652;9.292;2023-02-15T07:18:45;-0.50;99.90
73643;DHT22;61938;48.652;9.292;2023-02-15T07:21:10;-0.40;99.90
73643;DHT22;61938;48.652;9.292;2023-02-15T07:23:37;-0.20;99.90
73643;DHT22;61938;48.652;9.292;2023-02-15T07:26:03;-0.10;99.90
73643;DHT22;61938;48.652;9.292;2023-02-15T07:28:29;0.00;99.90
73643;DHT22;61938;48.652;9.292;2023-02-15T07:30:55;0.00;99.90
73643;DHT22;61938;48.652;9.292;2023-02-15T07:33:21;0.10;99.90
73643;DHT22;61938;48.652;9.292;2023-02-15T07:35:51;0.20;99.90
73643;DHT22;61938;48.652;9.292;2023-02-15T07:38:17;0.20;99.90
73643;DHT22;61938;48.652;9.292;2023-02-15T07:40:43;0.20;99.90
73643;DHT22;61938;48.652;9.292;2023-02-15T07:43:09;0.30;99.90
73643;DHT22;61938;48.652;9.292;2023-02-15T07:45:34;0.20;99.90
73643;DHT22;61938;48.652;9.292;2023-02-15T07:48:01;0.40;99.90
73643;DHT22;61938;48.652;9.292;2023-02-15T07:50:26;0.50;99.90
73643;DHT22;61938;48.652;9.292;2023-02-15T07:52:52;0.60;99.90
73643;DHT22;61938;48.652;9.292;2023-02-15T07:55:17;0.70;99.90
73643;DHT22;61938;48.652;9.292;2023-02-15T07:57:49;0.80;99.90
73643;DHT22;61938;48.652;9.292;2023-02-15T08:00:16;1.00;99.90
73643;DHT22;61938;48.652;9.292;2023-02-15T08:02:42;1.20;99.90
73643;DHT22;61938;48.652;9.292;2023-02-15T08:05:12;1.40;99.90
73643;DHT22;61938;48.652;9.292;2023-02-15T08:07:37;1.60;99.90
73643;DHT22;61938;48.652;9.292;2023-02-15T08:10:03;1.80;99.90
73643;DHT22;61938;48.652;9.292;2023-02-15T08:12:29;2.00;99.90
73643;DHT22;61938;48.652;9.292;2023-02-15T08:14:54;2.10;99.90
73643;DHT22;61938;48.652;9.292;2023-02-15T08:17:20;2.20;99.90
73643;DHT22;61938;48.652;9.292;2023-02-15T08:19:45;2.30;99.90
73643;DHT22;61938;48.652;9.292;2023-02-15T08:22:13;2.40;99.90
73643;DHT22;61938;48.652;9.292;2023-02-15T08:24:39;2.50;99.90
73643;DHT22;61938;48.652;9.292;2023-02-15T08:27:06;2.80;99.90
73643;DHT22;61938;48.652;9.292;2023-02-15T08:29:33;2.90;99.90
73643;DHT22;61938;48.652;9.292;2023-02-15T08:32:04;2.70;99.90
73643;DHT22;61938;48.652;9.292;2023-02-15T08:34:32;3.00;99.90
73643;DHT22;61938;48.652;9.292;2023-02-15T08:36:58;3.10;99.90
73643;DHT22;61938;48.652;9.292;2023-02-15T08:39:23;3.00;99.90
73643;DHT22;61938;48.652;9.292;2023-02-15T08:41:49;2.90;99.90
73643;DHT22;61938;48.652;9.292;2023-02-15T08:44:17;2.90;99.90
73643;DHT22;61938;48.652;9.292;2023-02-15T08:46:44;2.70;99.90
73643;DHT22;61938;48.652;9.292;2023-02-15T08:49:16;2.80;99.90
73643;DHT22;61938;48.652;9.292;2023-02-15T08:51:42;3.00;99.90
73643;DHT22;61938;48.652;9.292;2023-02-15T08:54:11;3.20;99.90
73643;DHT22;61938;48.652;9.292;2023-02-15T08:56:39;3.30;99.90
73643;DHT22;61938;48.652;9.292;2023-02-15T08:59:06;3.30;99.90
73643;DHT22;61938;48.652;9.292;2023-02-15T09:01:33;3.30;99.90
73643;DHT22;61938;48.652;9.292;2023-02-15T09:04:04;3.40;99.90
73643;DHT22;61938;48.652;9.292;2023-02-15T09:06:31;4.30;99.90
73643;DHT22;61938;48.652;9.292;2023-02-15T09:08:57;3.60;99.90
73643;DHT22;61938;48.652;9.292;2023-02-15T09:11:28;3.90;99.90
73643;DHT22;61938;48.652;9.292;2023-02-15T09:13:59;4.20;99.90
73643;DHT22;61938;48.652;9.292;2023-02-15T09:16:27;4.90;99.90
73643;DHT22;61938;48.652;9.292;2023-02-15T09:18:54;4.70;99.90
73643;DHT22;61938;48.652;9.292;2023-02-15T09:21:22;4.50;99.90
73643;DHT22;61938;48.652;9.292;2023-02-15T09:23:49;4.60;99.90
73643;DHT22;61938;48.652;9.292;2023-02-15T09:26:18;4.60;99.90
73643;DHT22;61938;48.652;9.292;2023-02-15T09:28:44;4.60;99.90
73643;DHT22;61938;48.652;9.292;2023-02-15T09:31:14;4.50;99.90
73643;DHT22;61938;48.652;9.292;2023-02-15T09:33:41;4.70;99.90
73643;DHT22;61938;48.652;9.292;2023-02-15T09:36:20;4.80;99.90
73643;DHT22;61938;48.652;9.292;2023-02-15T09:38:47;4.70;99.90
73643;DHT22;61938;48.652;9.292;2023-02-15T09:46:56;5.40;99.90
73643;DHT22;61938;48.652;9.292;2023-02-15T09:52:44;5.20;99.90
73643;DHT22;61938;48.652;9.292;2023-02-15T10:01:15;5.20;99.90
73643;DHT22;61938;48.652;9.292;2023-02-15T10:20:36;6.70;99.90
73643;DHT22;61938;48.652;9.292;2023-02-15T10:26:12;7.00;99.90
73643;DHT22;61938;48.652;9.292;2023-02-15T10:28:56;7.10;99.90
73643;DHT22;61938;48.652;9.292;2023-02-15T10:31:27;7.20;99.90
73643;DHT22;61938;48.652;9.292;2023-02-15T10:36:40;7.30;99.90
73643;DHT22;61938;48.652;9.292;2023-02-15T10:39:28;7.50;99.90
73643;DHT22;61938;48.652;9.292;2023-02-15T10:42:20;7.80;99.90
73643;DHT22;61938;48.652;9.292;2023-02-15T10:48:15;8.00;99.90
73643;DHT22;61938;48.652;9.292;2023-02-15T10:53:38;8.50;99.90
73643;DHT22;61938;48.652;9.292;2023-02-15T10:56:24;8.60;99.90
73643;DHT22;61938;48.652;9.292;2023-02-15T11:01:35;9.10;99.90
73643;DHT22;61938;48.652;9.292;2023-02-15T11:04:26;9.20;99.90
73643;DHT22;61938;48.652;9.292;2023-02-15T11:06:59;9.40;99.90
73643;DHT22;61938;48.652;9.292;2023-02-15T11:09:36;9.70;99.90
73643;DHT22;61938;48.652;9.292;2023-02-15T11:12:10;9.60;99.90
73643;DHT22;61938;48.652;9.292;2023-02-15T11:15:03;9.70;99.90
73643;DHT22;61938;48.652;9.292;2023-02-15T11:17:37;10.00;99.90
73643;DHT22;61938;48.652;9.292;2023-02-15T11:20:21;10.10;99.90
73643;DHT22;61938;48.652;9.292;2023-02-15T11:22:49;10.40;99.90
73643;DHT22;61938;48.652;9.292;2023-02-15T11:25:54;10.30;99.90
73643;DHT22;61938;48.652;9.292;2023-02-15T11:28:27;10.70;99.90
73643;DHT22;61938;48.652;9.292;2023-02-15T11:30:57;11.00;99.90
73643;DHT22;61938;48.652;9.292;2023-02-15T11:33:29;10.90;99.90
73643;DHT22;61938;48.652;9.292;2023-02-15T11:36:00;10.90;99.90
73643;DHT22;61938;48.652;9.292;2023-02-15T11:38:32;11.10;99.90
73643;DHT22;61938;48.652;9.292;2023-02-15T11:41:09;11.30;99.90
73643;DHT22;61938;48.652;9.292;2023-02-15T11:43:43;11.50;99.90
73643;DHT22;61938;48.652;9.292;2023-02-15T11:46:12;11.80;99.90
73643;DHT22;61938;48.652;9.292;2023-02-15T11:48:38;12.10;99.90
73643;DHT22;61938;48.652;9.292;2023-02-15T11:51:04;12.40;99.90
73643;DHT22;61938;48.652;9.292;2023-02-15T11:53:33;12.50;99.90
73643;DHT22;61938;48.652;9.292;2023-02-15T11:56:01;12.30;99.90
73643;DHT22;61938;48.652;9.292;2023-02-15T11:58:52;12.70;99.90
73643;DHT22;61938;48.652;9.292;2023-02-15T12:01:41;13.00;99.90
73643;DHT22;61938;48.652;9.292;2023-02-15T12:06:45;13.70;98.20
73643;DHT22;61938;48.652;9.292;2023-02-15T12:11:49;13.60;97.30
73643;DHT22;61938;48.652;9.292;2023-02-15T12:14:15;13.80;98.10
73643;DHT22;61938;48.652;9.292;2023-02-15T12:16:49;13.80;97.90
73643;DHT22;61938;48.652;9.292;2023-02-15T12:19:30;13.90;97.60
73643;DHT22;61938;48.652;9.292;2023-02-15T12:21:57;14.10;97.30
73643;DHT22;61938;48.652;9.292;2023-02-15T12:24:28;14.50;95.50
73643;DHT22;61938;48.652;9.292;2023-02-15T12:27:01;14.50;93.90
73643;DHT22;61938;48.652;9.292;2023-02-15T12:29:32;14.40;93.70
73643;DHT22;61938;48.652;9.292;2023-02-15T12:32:01;14.20;96.40
73643;DHT22;61938;48.652;9.292;2023-02-15T12:34:30;14.30;98.10
73643;DHT22;61938;48.652;9.292;2023-02-15T12:36:59;14.00;98.80
73643;DHT22;61938;48.652;9.292;2023-02-15T12:39:31;13.80;98.20
73643;DHT22;61938;48.652;9.292;2023-02-15T12:42:24;13.90;98.80
73643;DHT22;61938;48.652;9.292;2023-02-15T12:45:04;14.00;98.30
73643;DHT22;61938;48.652;9.292;2023-02-15T12:47:44;14.20;98.50
73643;DHT22;61938;48.652;9.292;2023-02-15T12:50:28;14.40;97.70
73643;DHT22;61938;48.652;9.292;2023-02-15T12:53:16;14.10;97.80
73643;DHT22;61938;48.652;9.292;2023-02-15T12:56:13;14.30;95.70
73643;DHT22;61938;48.652;9.292;2023-02-15T12:59:04;14.30;95.30
73643;DHT22;61938;48.652;9.292;2023-02-15T13:01:32;14.20;95.80
73643;DHT22;61938;48.652;9.292;2023-02-15T13:04:00;14.00;96.50
73643;DHT22;61938;48.652;9.292;2023-02-15T13:06:27;14.00;97.20
73643;DHT22;61938;48.652;9.292;2023-02-15T13:08:58;14.10;96.90
73643;DHT22;61938;48.652;9.292;2023-02-15T13:11:32;14.30;96.30
73643;DHT22;61938;48.652;9.292;2023-02-15T13:14:02;14.30;96.60
73643;DHT22;61938;48.652;9.292;2023-02-15T13:16:37;14.40;97.00
73643;DHT22;61938;48.652;9.292;2023-02-15T13:19:09;14.60;95.60
73643;DHT22;61938;48.652;9.292;2023-02-15T13:21:39;14.60;94.10
73643;DHT22;61938;48.652;9.292;2023-02-15T13:24:13;14.80;94.50
73643;DHT22;61938;48.652;9.292;2023-02-15T13:26:42;14.60;92.00
73643;DHT22;61938;48.652;9.292;2023-02-15T13:29:25;14.20;94.00
73643;DHT22;61938;48.652;9.292;2023-02-15T13:31:52;14.10;94.50
73643;DHT22;61938;48.652;9.292;2023-02-15T13:34:36;14.20;93.60
73643;DHT22;61938;48.652;9.292;2023-02-15T13:37:05;14.20;94.50
73643;DHT22;61938;48.652;9.292;2023-02-15T13:39:47;14.40;94.60
73643;DHT22;61938;48.652;9.292;2023-02-15T13:43:05;14.50;92.50
73643;DHT22;61938;48.652;9.292;2023-02-15T13:45:47;14.60;92.70
73643;DHT22;61938;48.652;9.292;2023-02-15T13:51:13;14.90;92.10
73643;DHT22;61938;48.652;9.292;2023-02-15T13:54:00;15.00;91.80
73643;DHT22;61938;48.652;9.292;2023-02-15T13:56:55;15.00;90.60
73643;DHT22;61938;48.652;9.292;2023-02-15T14:04:47;14.90;90.40
73643;DHT22;61938;48.652;9.292;2023-02-15T14:10:46;14.90;91.40
73643;DHT22;61938;48.652;9.292;2023-02-15T14:16:16;14.70;90.60
73643;DHT22;61938;48.652;9.292;2023-02-15T14:18:59;14.60;91.90
73643;DHT22;61938;48.652;9.292;2023-02-15T14:22:16;14.50;92.00
73643;DHT22;61938;48.652;9.292;2023-02-15T14:25:16;14.40;91.80
73643;DHT22;61938;48.652;9.292;2023-02-15T14:28:09;14.40;91.70
73643;DHT22;61938;48.652;9.292;2023-02-15T14:30:38;14.30;91.80
73643;DHT22;61938;48.652;9.292;2023-02-15T14:35:32;14.10;91.50
73643;DHT22;61938;48.652;9.292;2023-02-15T14:41:04;13.80;90.90
73643;DHT22;61938;48.652;9.292;2023-02-15T14:49:23;13.90;93.90
73643;DHT22;61938;48.652;9.292;2023-02-15T15:02:45;13.40;90.50
73643;DHT22;61938;48.652;9.292;2023-02-15T15:07:57;13.00;90.00
73643;DHT22;61938;48.652;9.292;2023-02-15T15:10:34;12.90;90.70
73643;DHT22;61938;48.652;9.292;2023-02-15T15:16:46;12.80;91.70
73643;DHT22;61938;48.652;9.292;2023-02-15T15:22:23;12.70;92.20
73643;DHT22;61938;48.652;9.292;2023-02-15T15:24:57;12.60;92.70
73643;DHT22;61938;48.652;9.292;2023-02-15T15:38:15;12.20;93.60
73643;DHT22;61938;48.652;9.292;2023-02-15T15:41:14;12.20;94.20
73643;DHT22;61938;48.652;9.292;2023-02-15T15:49:21;11.90;95.70
73643;DHT22;61938;48.652;9.292;2023-02-15T15:51:49;11.80;95.20
73643;DHT22;61938;48.652;9.292;2023-02-15T15:56:46;11.60;95.60
73643;DHT22;61938;48.652;9.292;2023-02-15T15:59:20;11.50;96.20
73643;DHT22;61938;48.652;9.292;2023-02-15T16:01:47;11.40;97.40
73643;DHT22;61938;48.652;9.292;2023-02-15T16:04:21;11.30;99.40
73643;DHT22;61938;48.652;9.292;2023-02-15T16:06:47;11.20;99.90
73643;DHT22;61938;48.652;9.292;2023-02-15T16:09:18;11.10;99.90
73643;DHT22;61938;48.652;9.292;2023-02-15T16:11:50;11.00;99.90
73643;DHT22;61938;48.652;9.292;2023-02-15T16:16:50;10.70;99.90
73643;DHT22;61938;48.652;9.292;2023-02-15T16:19:20;10.60;99.90
73643;DHT22;61938;48.652;9.292;2023-02-15T16:21:47;10.50;99.90
73643;DHT22;61938;48.652;9.292;2023-02-15T16:24:22;10.30;99.90
73643;DHT22;61938;48.652;9.292;2023-02-15T16:29:32;10.00;99.90
73643;DHT22;61938;48.652;9.292;2023-02-15T16:32:03;9.90;99.90
73643;DHT22;61938;48.652;9.292;2023-02-15T16:34:29;9.80;99.90
73643;DHT22;61938;48.652;9.292;2023-02-15T16:37:14;9.60;99.90
73643;DHT22;61938;48.652;9.292;2023-02-15T16:39:44;9.40;99.90
73643;DHT22;61938;48.652;9.292;2023-02-15T16:42:11;9.30;99.90
73643;DHT22;61938;48.652;9.292;2023-02-15T16:44:39;9.20;99.90
73643;DHT22;61938;48.652;9.292;2023-02-15T16:47:12;9.10;99.90
73643;DHT22;61938;48.652;9.292;2023-02-15T16:49:44;9.00;99.90
73643;DHT22;61938;48.652;9.292;2023-02-15T16:52:15;8.80;99.90
73643;DHT22;61938;48.652;9.292;2023-02-15T16:54:44;8.70;99.90
73643;DHT22;61938;48.652;9.292;2023-02-15T16:57:18;8.60;99.90
73643;DHT22;61938;48.652;9.292;2023-02-15T16:59:47;8.40;99.90
73643;DHT22;61938;48.652;9.292;2023-02-15T17:02:18;8.30;99.90
73643;DHT22;61938;48.652;9.292;2023-02-15T17:04:45;8.20;99.90
73643;DHT22;61938;48.652;9.292;2023-02-15T17:07:19;8.00;99.90
73643;DHT22;61938;48.652;9.292;2023-02-15T17:09:49;8.00;99.90
73643;DHT22;61938;48.652;9.292;2023-02-15T17:12:44;7.80;99.90
73643;DHT22;61938;48.652;9.292;2023-02-15T17:18:00;7.50;99.90
73643;DHT22;61938;48.652;9.292;2023-02-15T17:20:27;7.40;99.90
73643;DHT22;61938;48.652;9.292;2023-02-15T17:22:53;7.20;99.90
73643;DHT22;61938;48.652;9.292;2023-02-15T17:25:24;7.20;99.90
73643;DHT22;61938;48.652;9.292;2023-02-15T17:27:53;7.00;99.90
73643;DHT22;61938;48.652;9.292;2023-02-15T17:30:31;6.90;99.90
73643;DHT22;61938;48.652;9.292;2023-02-15T17:33:02;6.80;99.90
73643;DHT22;61938;48.652;9.292;2023-02-15T17:35:32;6.70;99.90
73643;DHT22;61938;48.652;9.292;2023-02-15T17:38:06;6.60;99.90
73643;DHT22;61938;48.652;9.292;2023-02-15T17:40:34;6.50;99.90
73643;DHT22;61938;48.652;9.292;2023-02-15T17:43:00;6.40;99.90
73643;DHT22;61938;48.652;9.292;2023-02-15T17:45:31;6.30;99.90
73643;DHT22;61938;48.652;9.292;2023-02-15T17:47:57;6.10;99.90
73643;DHT22;61938;48.652;9.292;2023-02-15T17:50:26;5.90;99.90
73643;DHT22;61938;48.652;9.292;2023-02-15T17:52:53;5.80;99.90
73643;DHT22;61938;48.652;9.292;2023-02-15T17:55:22;5.80;99.90
73643;DHT22;61938;48.652;9.292;2023-02-15T17:58:02;5.60;99.90
73643;DHT22;61938;48.652;9.292;2023-02-15T18:00:30;5.60;99.90
73643;DHT22;61938;48.652;9.292;2023-02-15T18:03:14;5.40;99.90
73643;DHT22;61938;48.652;9.292;2023-02-15T18:05:58;5.40;99.90
73643;DHT22;61938;48.652;9.292;2023-02-15T18:08:42;5.30;99.90
73643;DHT22;61938;48.652;9.292;2023-02-15T18:11:26;5.30;99.90
73643;DHT22;61938;48.652;9.292;2023-02-15T18:14:09;5.30;99.90
73643;DHT22;61938;48.652;9.292;2023-02-15T18:16:40;5.10;99.90
73643;DHT22;61938;48.652;9.292;2023-02-15T18:19:18;5.00;99.90
73643;DHT22;61938;48.652;9.292;2023-02-15T18:21:46;4.90;99.90
73643;DHT22;61938;48.652;9.292;2023-02-15T18:24:18;4.80;99.90
73643;DHT22;61938;48.652;9.292;2023-02-15T18:26:44;4.70;99.90
73643;DHT22;61938;48.652;9.292;2023-02-15T18:29:09;4.60;99.90